sensor_id;sensor_type;location;lat;lon;timestamp;P1;durP1;ratioP1;P2;durP2;ratioP2
48623;SDS011;34422;45.802;16.114;2022-08-19T00:00:38;12.50;;;5.45;;
48623;SDS011;34422;45.802;16.114;2022-08-19T00:03:05;14.70;;;6.20;;
48623;SDS011;34422;45.802;16.114;2022-08-19T00:05:33;13.35;;;5.38;;
48623;SDS011;34422;45.802;16.114;2022-08-19T00:08:00;12.82;;;6.07;;
48623;SDS011;34422;45.802;16.114;2022-08-19T00:10:27;13.27;;;5.68;;
48623;SDS011;34422;45.802;16.114;2022-08-19T00:12:53;12.38;;;6.22;;
48623;SDS011;34422;45.802;16.114;2022-08-19T00:15:21;15.85;;;7.07;;
48623;SDS011;34422;45.802;16.114;2022-08-19T00:17:48;13.30;;;6.95;;
48623;SDS011;34422;45.802;16.114;2022-08-19T00:20:18;21.10;;;7.47;;
48623;SDS011;34422;45.802;16.114;2022-08-19T00:22:47;13.70;;;7.10;;
48623;SDS011;34422;45.802;16.114;2022-08-19T00:25:14;15.63;;;7.10;;
48623;SDS011;34422;45.802;16.114;2022-08-19T00:27:42;17.02;;;7.70;;
48623;SDS011;34422;45.802;16.114;2022-08-19T00:30:09;15.25;;;7.20;;
48623;SDS011;34422;45.802;16.114;2022-08-19T00:32:37;16.90;;;6.43;;
48623;SDS011;34422;45.802;16.114;2022-08-19T00:35:05;15.77;;;7.72;;
48623;SDS011;34422;45.802;16.114;2022-08-19T00:37:32;12.07;;;5.70;;
48623;SDS011;34422;45.802;16.114;2022-08-19T00:40:01;17.10;;;6.50;;
48623;SDS011;34422;45.802;16.114;2022-08-19T00:42:28;10.23;;;6.50;;
48623;SDS011;34422;45.802;16.114;2022-08-19T00:44:55;11.85;;;6.90;;
48623;SDS011;34422;45.802;16.114;2022-08-19T00:47:22;16.73;;;7.22;;
48623;SDS011;34422;45.802;16.114;2022-08-19T00:49:50;18.65;;;7.43;;
48623;SDS011;34422;45.802;16.114;2022-08-19T00:52:28;15.10;;;7.38;;
48623;SDS011;34422;45.802;16.114;2022-08-19T00:54:58;12.48;;;6.70;;
48623;SDS011;34422;45.802;16.114;2022-08-19T00:57:30;11.40;;;6.65;;
48623;SDS011;34422;45.802;16.114;2022-08-19T01:00:03;16.30;;;7.05;;
48623;SDS011;34422;45.802;16.114;2022-08-19T01:02:36;15.95;;;6.85;;
48623;SDS011;34422;45.802;16.114;2022-08-19T01:05:05;14.98;;;7.45;;
48623;SDS011;34422;45.802;16.114;2022-08-19T01:07:35;12.40;;;6.25;;
48623;SDS011;34422;45.802;16.114;2022-08-19T01:10:06;11.73;;;6.45;;
48623;SDS011;34422;45.802;16.114;2022-08-19T01:12:36;13.23;;;6.30;;
48623;SDS011;34422;45.802;16.114;2022-08-19T01:15:04;13.95;;;6.88;;
48623;SDS011;34422;45.802;16.114;2022-08-19T01:17:34;12.93;;;6.65;;
48623;SDS011;34422;45.802;16.114;2022-08-19T01:20:05;11.73;;;6.60;;
48623;SDS011;34422;45.802;16.114;2022-08-19T01:25:09;16.67;;;7.32;;
48623;SDS011;34422;45.802;16.114;2022-08-19T01:27:40;9.98;;;6.20;;
48623;SDS011;34422;45.802;16.114;2022-08-19T01:30:11;12.68;;;6.90;;
48623;SDS011;34422;45.802;16.114;2022-08-19T01:32:41;11.23;;;6.03;;
48623;SDS011;34422;45.802;16.114;2022-08-19T01:35:08;16.13;;;6.88;;
48623;SDS011;34422;45.802;16.114;2022-08-19T01:37:47;12.27;;;6.28;;
48623;SDS011;34422;45.802;16.114;2022-08-19T01:40:15;13.50;;;6.80;;
48623;SDS011;34422;45.802;16.114;2022-08-19T01:42:43;12.52;;;6.53;;
48623;SDS011;34422;45.802;16.114;2022-08-19T01:45:10;18.23;;;6.78;;
48623;SDS011;34422;45.802;16.114;2022-08-19T01:47:37;13.45;;;6.95;;
48623;SDS011;34422;45.802;16.114;2022-08-19T01:50:05;17.70;;;7.00;;
48623;SDS011;34422;45.802;16.114;2022-08-19T01:52:38;12.85;;;5.90;;
48623;SDS011;34422;45.802;16.114;2022-08-19T01:55:07;14.63;;;6.03;;
48623;SDS011;34422;45.802;16.114;2022-08-19T01:57:35;11.80;;;5.78;;
48623;SDS011;34422;45.802;16.114;2022-08-19T02:00:05;10.38;;;5.93;;
48623;SDS011;34422;45.802;16.114;2022-08-19T02:02:34;16.00;;;6.18;;
48623;SDS011;34422;45.802;16.114;2022-08-19T02:05:00;10.93;;;6.20;;
48623;SDS011;34422;45.802;16.114;2022-08-19T02:07:27;12.35;;;6.07;;
48623;SDS011;34422;45.802;16.114;2022-08-19T02:09:54;14.57;;;6.82;;
48623;SDS011;34422;45.802;16.114;2022-08-19T02:12:21;14.27;;;6.55;;
48623;SDS011;34422;45.802;16.114;2022-08-19T02:14:48;14.40;;;5.78;;
48623;SDS011;34422;45.802;16.114;2022-08-19T02:17:15;10.38;;;5.72;;
48623;SDS011;34422;45.802;16.114;2022-08-19T02:19:41;16.63;;;6.32;;
48623;SDS011;34422;45.802;16.114;2022-08-19T02:22:08;13.90;;;6.60;;
48623;SDS011;34422;45.802;16.114;2022-08-19T02:24:35;17.13;;;7.65;;
48623;SDS011;34422;45.802;16.114;2022-08-19T02:27:02;13.57;;;7.10;;
48623;SDS011;34422;45.802;16.114;2022-08-19T02:29:28;13.38;;;7.07;;
48623;SDS011;34422;45.802;16.114;2022-08-19T02:31:55;11.90;;;7.15;;
48623;SDS011;34422;45.802;16.114;2022-08-19T02:34:22;12.23;;;6.65;;
48623;SDS011;34422;45.802;16.114;2022-08-19T02:36:51;17.13;;;6.93;;
48623;SDS011;34422;45.802;16.114;2022-08-19T02:39:18;16.10;;;6.93;;
48623;SDS011;34422;45.802;16.114;2022-08-19T02:41:46;14.68;;;6.75;;
48623;SDS011;34422;45.802;16.114;2022-08-19T02:44:12;20.77;;;6.65;;
48623;SDS011;34422;45.802;16.114;2022-08-19T02:46:39;15.95;;;6.82;;
48623;SDS011;34422;45.802;16.114;2022-08-19T02:49:06;15.32;;;6.38;;
48623;SDS011;34422;45.802;16.114;2022-08-19T02:51:35;16.30;;;6.85;;
48623;SDS011;34422;45.802;16.114;2022-08-19T02:54:04;18.38;;;6.97;;
48623;SDS011;34422;45.802;16.114;2022-08-19T02:56:33;14.15;;;6.38;;
48623;SDS011;34422;45.802;16.114;2022-08-19T02:59:02;16.00;;;6.55;;
48623;SDS011;34422;45.802;16.114;2022-08-19T03:01:34;22.08;;;6.68;;
48623;SDS011;34422;45.802;16.114;2022-08-19T03:04:03;12.75;;;6.50;;
48623;SDS011;34422;45.802;16.114;2022-08-19T03:06:31;12.38;;;7.68;;
48623;SDS011;34422;45.802;16.114;2022-08-19T03:08:58;13.20;;;6.60;;
48623;SDS011;34422;45.802;16.114;2022-08-19T03:11:27;14.10;;;6.50;;
48623;SDS011;34422;45.802;16.114;2022-08-19T03:13:56;10.55;;;5.75;;
48623;SDS011;34422;45.802;16.114;2022-08-19T03:16:25;16.35;;;7.43;;
48623;SDS011;34422;45.802;16.114;2022-08-19T03:18:55;15.48;;;6.63;;
48623;SDS011;34422;45.802;16.114;2022-08-19T03:21:24;13.98;;;5.88;;
48623;SDS011;34422;45.802;16.114;2022-08-19T03:23:56;12.85;;;6.97;;
48623;SDS011;34422;45.802;16.114;2022-08-19T03:26:25;16.52;;;6.95;;
48623;SDS011;34422;45.802;16.114;2022-08-19T03:28:52;13.85;;;6.82;;
48623;SDS011;34422;45.802;16.114;2022-08-19T03:31:20;13.45;;;6.68;;
48623;SDS011;34422;45.802;16.114;2022-08-19T03:33:49;10.20;;;5.75;;
48623;SDS011;34422;45.802;16.114;2022-08-19T03:36:20;10.52;;;6.22;;
48623;SDS011;34422;45.802;16.114;2022-08-19T03:38:49;16.27;;;7.68;;
48623;SDS011;34422;45.802;16.114;2022-08-19T03:41:19;15.25;;;7.20;;
48623;SDS011;34422;45.802;16.114;2022-08-19T03:43:47;10.30;;;6.67;;
48623;SDS011;34422;45.802;16.114;2022-08-19T03:46:16;10.70;;;6.40;;
48623;SDS011;34422;45.802;16.114;2022-08-19T03:48:50;14.32;;;7.13;;
48623;SDS011;34422;45.802;16.114;2022-08-19T03:51:21;18.55;;;7.43;;
48623;SDS011;34422;45.802;16.114;2022-08-19T03:53:52;14.57;;;6.60;;
48623;SDS011;34422;45.802;16.114;2022-08-19T03:56:20;18.77;;;7.50;;
48623;SDS011;34422;45.802;16.114;2022-08-19T03:58:47;14.75;;;6.90;;
48623;SDS011;34422;45.802;16.114;2022-08-19T04:01:16;12.27;;;7.85;;
48623;SDS011;34422;45.802;16.114;2022-08-19T04:03:44;14.75;;;7.13;;
48623;SDS011;34422;45.802;16.114;2022-08-19T04:06:16;15.45;;;7.38;;
48623;SDS011;34422;45.802;16.114;2022-08-19T04:08:45;11.90;;;5.93;;
48623;SDS011;34422;45.802;16.114;2022-08-19T04:11:13;11.90;;;7.57;;
48623;SDS011;34422;45.802;16.114;2022-08-19T04:13:41;13.20;;;6.27;;
48623;SDS011;34422;45.802;16.114;2022-08-19T04:16:10;12.98;;;7.07;;
48623;SDS011;34422;45.802;16.114;2022-08-19T04:18:38;12.38;;;6.75;;
48623;SDS011;34422;45.802;16.114;2022-08-19T04:21:06;17.10;;;7.40;;
48623;SDS011;34422;45.802;16.114;2022-08-19T04:23:34;14.45;;;7.00;;
48623;SDS011;34422;45.802;16.114;2022-08-19T04:26:02;15.20;;;7.03;;
48623;SDS011;34422;45.802;16.114;2022-08-19T04:28:29;12.00;;;6.65;;
48623;SDS011;34422;45.802;16.114;2022-08-19T04:30:56;14.23;;;6.32;;
48623;SDS011;34422;45.802;16.114;2022-08-19T04:33:24;16.95;;;6.30;;
48623;SDS011;34422;45.802;16.114;2022-08-19T04:35:52;15.52;;;6.07;;
48623;SDS011;34422;45.802;16.114;2022-08-19T04:38:25;14.38;;;5.95;;
48623;SDS011;34422;45.802;16.114;2022-08-19T04:40:52;10.35;;;5.90;;
48623;SDS011;34422;45.802;16.114;2022-08-19T04:43:38;13.52;;;5.28;;
48623;SDS011;34422;45.802;16.114;2022-08-19T04:46:09;12.80;;;5.97;;
48623;SDS011;34422;45.802;16.114;2022-08-19T04:48:38;16.05;;;5.45;;
48623;SDS011;34422;45.802;16.114;2022-08-19T04:51:07;14.88;;;5.90;;
48623;SDS011;34422;45.802;16.114;2022-08-19T04:53:37;12.70;;;5.47;;
48623;SDS011;34422;45.802;16.114;2022-08-19T04:56:07;16.00;;;6.38;;
48623;SDS011;34422;45.802;16.114;2022-08-19T04:58:35;10.55;;;5.40;;
48623;SDS011;34422;45.802;16.114;2022-08-19T05:01:04;11.10;;;5.15;;
48623;SDS011;34422;45.802;16.114;2022-08-19T05:03:31;14.75;;;5.28;;
48623;SDS011;34422;45.802;16.114;2022-08-19T05:06:06;14.25;;;4.75;;
48623;SDS011;34422;45.802;16.114;2022-08-19T05:08:35;10.52;;;3.97;;
48623;SDS011;34422;45.802;16.114;2022-08-19T05:11:07;12.18;;;5.15;;
48623;SDS011;34422;45.802;16.114;2022-08-19T05:13:55;13.57;;;5.70;;
48623;SDS011;34422;45.802;16.114;2022-08-19T05:16:23;14.27;;;4.88;;
48623;SDS011;34422;45.802;16.114;2022-08-19T05:18:51;13.20;;;5.03;;
48623;SDS011;34422;45.802;16.114;2022-08-19T05:21:38;18.08;;;4.97;;
48623;SDS011;34422;45.802;16.114;2022-08-19T05:24:24;10.50;;;5.38;;
48623;SDS011;34422;45.802;16.114;2022-08-19T05:26:53;14.90;;;6.30;;
48623;SDS011;34422;45.802;16.114;2022-08-19T05:29:23;16.33;;;7.18;;
48623;SDS011;34422;45.802;16.114;2022-08-19T05:31:52;13.80;;;7.65;;
48623;SDS011;34422;45.802;16.114;2022-08-19T05:34:21;17.48;;;7.47;;
48623;SDS011;34422;45.802;16.114;2022-08-19T05:36:53;17.67;;;7.60;;
48623;SDS011;34422;45.802;16.114;2022-08-19T05:39:24;13.93;;;7.65;;
48623;SDS011;34422;45.802;16.114;2022-08-19T05:41:55;18.70;;;7.90;;
48623;SDS011;34422;45.802;16.114;2022-08-19T05:44:25;16.23;;;7.85;;
48623;SDS011;34422;45.802;16.114;2022-08-19T05:46:53;18.08;;;8.93;;
48623;SDS011;34422;45.802;16.114;2022-08-19T05:49:21;13.32;;;7.15;;
48623;SDS011;34422;45.802;16.114;2022-08-19T05:51:48;12.30;;;7.45;;
48623;SDS011;34422;45.802;16.114;2022-08-19T05:54:15;14.13;;;6.63;;
48623;SDS011;34422;45.802;16.114;2022-08-19T05:56:42;12.90;;;6.03;;
48623;SDS011;34422;45.802;16.114;2022-08-19T05:59:10;14.32;;;6.88;;
48623;SDS011;34422;45.802;16.114;2022-08-19T06:01:38;13.30;;;6.40;;
48623;SDS011;34422;45.802;16.114;2022-08-19T06:04:06;11.02;;;5.80;;
48623;SDS011;34422;45.802;16.114;2022-08-19T06:06:34;14.82;;;6.68;;
48623;SDS011;34422;45.802;16.114;2022-08-19T06:09:02;12.30;;;6.22;;
48623;SDS011;34422;45.802;16.114;2022-08-19T06:11:32;21.00;;;7.50;;
48623;SDS011;34422;45.802;16.114;2022-08-19T06:14:03;14.15;;;5.70;;
48623;SDS011;34422;45.802;16.114;2022-08-19T06:16:35;21.25;;;6.63;;
48623;SDS011;34422;45.802;16.114;2022-08-19T06:19:05;13.40;;;6.80;;
48623;SDS011;34422;45.802;16.114;2022-08-19T06:21:35;13.65;;;6.28;;
48623;SDS011;34422;45.802;16.114;2022-08-19T06:24:04;10.68;;;6.72;;
48623;SDS011;34422;45.802;16.114;2022-08-19T06:26:33;15.43;;;6.25;;
48623;SDS011;34422;45.802;16.114;2022-08-19T06:29:02;18.08;;;6.57;;
48623;SDS011;34422;45.802;16.114;2022-08-19T06:31:30;13.55;;;6.63;;
48623;SDS011;34422;45.802;16.114;2022-08-19T06:34:03;18.55;;;6.68;;
48623;SDS011;34422;45.802;16.114;2022-08-19T06:36:35;17.58;;;7.95;;
48623;SDS011;34422;45.802;16.114;2022-08-19T06:39:06;18.02;;;8.05;;
48623;SDS011;34422;45.802;16.114;2022-08-19T06:41:54;10.70;;;5.25;;
48623;SDS011;34422;45.802;16.114;2022-08-19T06:44:24;14.07;;;6.97;;
48623;SDS011;34422;45.802;16.114;2022-08-19T06:46:53;17.35;;;7.50;;
48623;SDS011;34422;45.802;16.114;2022-08-19T06:49:22;14.52;;;6.05;;
48623;SDS011;34422;45.802;16.114;2022-08-19T06:51:50;15.77;;;5.72;;
48623;SDS011;34422;45.802;16.114;2022-08-19T06:54:18;12.60;;;5.85;;
48623;SDS011;34422;45.802;16.114;2022-08-19T06:56:45;11.95;;;7.10;;
48623;SDS011;34422;45.802;16.114;2022-08-19T06:59:16;9.50;;;5.57;;
48623;SDS011;34422;45.802;16.114;2022-08-19T07:01:46;11.95;;;4.82;;
48623;SDS011;34422;45.802;16.114;2022-08-19T07:06:47;13.98;;;5.22;;
48623;SDS011;34422;45.802;16.114;2022-08-19T07:09:16;11.50;;;5.70;;
48623;SDS011;34422;45.802;16.114;2022-08-19T07:11:45;22.38;;;6.10;;
48623;SDS011;34422;45.802;16.114;2022-08-19T07:14:17;16.80;;;5.50;;
48623;SDS011;34422;45.802;16.114;2022-08-19T07:16:49;14.77;;;6.13;;
48623;SDS011;34422;45.802;16.114;2022-08-19T07:19:21;13.05;;;6.03;;
48623;SDS011;34422;45.802;16.114;2022-08-19T07:21:50;23.42;;;5.82;;
48623;SDS011;34422;45.802;16.114;2022-08-19T07:24:19;15.13;;;6.00;;
48623;SDS011;34422;45.802;16.114;2022-08-19T07:26:50;13.80;;;6.72;;
48623;SDS011;34422;45.802;16.114;2022-08-19T07:29:19;14.68;;;6.32;;
48623;SDS011;34422;45.802;16.114;2022-08-19T07:31:49;17.65;;;6.53;;
48623;SDS011;34422;45.802;16.114;2022-08-19T07:34:17;11.30;;;5.60;;
48623;SDS011;34422;45.802;16.114;2022-08-19T07:36:45;15.05;;;6.72;;
48623;SDS011;34422;45.802;16.114;2022-08-19T07:39:20;12.13;;;6.20;;
48623;SDS011;34422;45.802;16.114;2022-08-19T07:41:50;15.43;;;7.63;;
48623;SDS011;34422;45.802;16.114;2022-08-19T07:44:19;18.27;;;6.70;;
48623;SDS011;34422;45.802;16.114;2022-08-19T07:46:48;17.10;;;6.72;;
48623;SDS011;34422;45.802;16.114;2022-08-19T07:49:24;18.02;;;6.63;;
48623;SDS011;34422;45.802;16.114;2022-08-19T07:51:58;17.50;;;6.25;;
48623;SDS011;34422;45.802;16.114;2022-08-19T07:54:28;14.00;;;6.57;;
48623;SDS011;34422;45.802;16.114;2022-08-19T07:56:57;16.45;;;5.60;;
48623;SDS011;34422;45.802;16.114;2022-08-19T07:59:27;11.50;;;5.22;;
48623;SDS011;34422;45.802;16.114;2022-08-19T08:01:56;12.98;;;6.57;;
48623;SDS011;34422;45.802;16.114;2022-08-19T08:04:26;13.57;;;5.13;;
48623;SDS011;34422;45.802;16.114;2022-08-19T08:07:12;9.60;;;4.60;;
48623;SDS011;34422;45.802;16.114;2022-08-19T08:09:58;11.40;;;5.72;;
48623;SDS011;34422;45.802;16.114;2022-08-19T08:12:27;14.38;;;5.50;;
48623;SDS011;34422;45.802;16.114;2022-08-19T08:14:59;13.50;;;5.72;;
48623;SDS011;34422;45.802;16.114;2022-08-19T08:17:30;16.75;;;7.25;;
48623;SDS011;34422;45.802;16.114;2022-08-19T08:19:59;16.98;;;5.22;;
48623;SDS011;34422;45.802;16.114;2022-08-19T08:22:26;10.70;;;4.75;;
48623;SDS011;34422;45.802;16.114;2022-08-19T08:25:16;10.65;;;4.10;;
48623;SDS011;34422;45.802;16.114;2022-08-19T08:27:46;10.35;;;5.30;;
48623;SDS011;34422;45.802;16.114;2022-08-19T08:30:15;16.08;;;5.20;;
48623;SDS011;34422;45.802;16.114;2022-08-19T08:32:43;12.32;;;5.00;;
48623;SDS011;34422;45.802;16.114;2022-08-19T08:35:12;9.45;;;4.20;;
48623;SDS011;34422;45.802;16.114;2022-08-19T08:40:12;10.32;;;4.13;;
48623;SDS011;34422;45.802;16.114;2022-08-19T08:42:44;10.82;;;4.20;;
48623;SDS011;34422;45.802;16.114;2022-08-19T08:45:18;16.50;;;4.70;;
48623;SDS011;34422;45.802;16.114;2022-08-19T08:47:46;10.07;;;3.90;;
48623;SDS011;34422;45.802;16.114;2022-08-19T08:50:23;9.27;;;3.92;;
48623;SDS011;34422;45.802;16.114;2022-08-19T08:52:56;11.98;;;4.38;;
48623;SDS011;34422;45.802;16.114;2022-08-19T08:55:25;11.65;;;3.90;;
48623;SDS011;34422;45.802;16.114;2022-08-19T08:57:57;9.60;;;3.80;;
48623;SDS011;34422;45.802;16.114;2022-08-19T09:00:30;10.98;;;3.88;;
48623;SDS011;34422;45.802;16.114;2022-08-19T09:03:06;19.48;;;4.55;;
48623;SDS011;34422;45.802;16.114;2022-08-19T09:08:24;10.88;;;4.18;;
48623;SDS011;34422;45.802;16.114;2022-08-19T09:11:05;10.13;;;4.22;;
48623;SDS011;34422;45.802;16.114;2022-08-19T09:16:07;10.07;;;4.25;;
48623;SDS011;34422;45.802;16.114;2022-08-19T09:18:48;12.13;;;4.95;;
48623;SDS011;34422;45.802;16.114;2022-08-19T09:21:20;10.30;;;4.30;;
48623;SDS011;34422;45.802;16.114;2022-08-19T09:23:49;14.95;;;4.88;;
48623;SDS011;34422;45.802;16.114;2022-08-19T09:26:17;12.43;;;4.80;;
48623;SDS011;34422;45.802;16.114;2022-08-19T09:28:50;24.65;;;4.93;;
48623;SDS011;34422;45.802;16.114;2022-08-19T09:31:22;14.65;;;5.05;;
48623;SDS011;34422;45.802;16.114;2022-08-19T09:33:51;15.55;;;6.72;;
48623;SDS011;34422;45.802;16.114;2022-08-19T09:36:20;13.57;;;5.20;;
48623;SDS011;34422;45.802;16.114;2022-08-19T09:38:48;14.23;;;4.88;;
48623;SDS011;34422;45.802;16.114;2022-08-19T09:41:20;16.90;;;4.88;;
48623;SDS011;34422;45.802;16.114;2022-08-19T09:43:51;15.18;;;5.55;;
48623;SDS011;34422;45.802;16.114;2022-08-19T09:46:22;16.10;;;5.43;;
48623;SDS011;34422;45.802;16.114;2022-08-19T09:48:52;21.90;;;5.28;;
48623;SDS011;34422;45.802;16.114;2022-08-19T09:51:21;13.20;;;4.70;;
48623;SDS011;34422;45.802;16.114;2022-08-19T09:53:50;11.30;;;5.20;;
48623;SDS011;34422;45.802;16.114;2022-08-19T09:56:22;22.30;;;6.43;;
48623;SDS011;34422;45.802;16.114;2022-08-19T09:58:49;17.10;;;6.65;;
48623;SDS011;34422;45.802;16.114;2022-08-19T10:01:20;12.73;;;5.03;;
48623;SDS011;34422;45.802;16.114;2022-08-19T10:03:53;16.83;;;5.85;;
48623;SDS011;34422;45.802;16.114;2022-08-19T10:06:22;22.85;;;6.88;;
48623;SDS011;34422;45.802;16.114;2022-08-19T10:08:51;20.77;;;5.88;;
48623;SDS011;34422;45.802;16.114;2022-08-19T10:11:19;23.15;;;6.60;;
48623;SDS011;34422;45.802;16.114;2022-08-19T10:13:46;14.32;;;6.28;;
48623;SDS011;34422;45.802;16.114;2022-08-19T10:16:15;12.18;;;5.55;;
48623;SDS011;34422;45.802;16.114;2022-08-19T10:18:46;11.68;;;5.78;;
48623;SDS011;34422;45.802;16.114;2022-08-19T10:21:14;17.27;;;6.35;;
48623;SDS011;34422;45.802;16.114;2022-08-19T10:23:48;12.63;;;5.93;;
48623;SDS011;34422;45.802;16.114;2022-08-19T10:26:18;15.48;;;6.30;;
48623;SDS011;34422;45.802;16.114;2022-08-19T10:28:47;16.08;;;6.28;;
48623;SDS011;34422;45.802;16.114;2022-08-19T10:31:16;13.70;;;5.88;;
48623;SDS011;34422;45.802;16.114;2022-08-19T10:33:46;19.30;;;5.53;;
48623;SDS011;34422;45.802;16.114;2022-08-19T10:36:15;17.73;;;5.50;;
48623;SDS011;34422;45.802;16.114;2022-08-19T10:38:49;16.42;;;6.35;;
48623;SDS011;34422;45.802;16.114;2022-08-19T10:41:18;13.93;;;5.57;;
48623;SDS011;34422;45.802;16.114;2022-08-19T10:43:56;10.35;;;5.55;;
48623;SDS011;34422;45.802;16.114;2022-08-19T10:46:26;10.50;;;5.18;;
48623;SDS011;34422;45.802;16.114;2022-08-19T10:48:54;12.15;;;5.45;;
48623;SDS011;34422;45.802;16.114;2022-08-19T10:51:21;12.15;;;5.65;;
48623;SDS011;34422;45.802;16.114;2022-08-19T10:54:17;15.80;;;6.22;;
48623;SDS011;34422;45.802;16.114;2022-08-19T10:56:44;15.07;;;5.60;;
48623;SDS011;34422;45.802;16.114;2022-08-19T10:59:20;16.23;;;5.13;;
48623;SDS011;34422;45.802;16.114;2022-08-19T11:01:48;10.68;;;4.78;;
48623;SDS011;34422;45.802;16.114;2022-08-19T11:04:16;14.02;;;5.15;;
48623;SDS011;34422;45.802;16.114;2022-08-19T11:06:46;14.45;;;5.22;;
48623;SDS011;34422;45.802;16.114;2022-08-19T11:09:17;12.80;;;4.72;;
48623;SDS011;34422;45.802;16.114;2022-08-19T11:11:48;13.80;;;4.80;;
48623;SDS011;34422;45.802;16.114;2022-08-19T11:14:16;12.55;;;5.07;;
48623;SDS011;34422;45.802;16.114;2022-08-19T11:16:47;11.73;;;4.80;;
48623;SDS011;34422;45.802;16.114;2022-08-19T11:19:15;13.25;;;4.97;;
48623;SDS011;34422;45.802;16.114;2022-08-19T11:21:46;13.23;;;4.70;;
48623;SDS011;34422;45.802;16.114;2022-08-19T11:24:15;10.60;;;4.25;;
48623;SDS011;34422;45.802;16.114;2022-08-19T11:29:11;13.10;;;4.10;;
48623;SDS011;34422;45.802;16.114;2022-08-19T11:31:40;15.65;;;4.07;;
48623;SDS011;34422;45.802;16.114;2022-08-19T11:34:09;12.82;;;3.83;;
48623;SDS011;34422;45.802;16.114;2022-08-19T11:36:40;10.98;;;4.05;;
48623;SDS011;34422;45.802;16.114;2022-08-19T11:39:11;14.95;;;3.72;;
48623;SDS011;34422;45.802;16.114;2022-08-19T11:41:40;13.80;;;3.80;;
48623;SDS011;34422;45.802;16.114;2022-08-19T11:44:07;14.43;;;4.40;;
48623;SDS011;34422;45.802;16.114;2022-08-19T11:46:35;13.10;;;4.22;;
48623;SDS011;34422;45.802;16.114;2022-08-19T11:49:03;10.70;;;3.88;;
48623;SDS011;34422;45.802;16.114;2022-08-19T11:51:31;12.85;;;4.03;;
48623;SDS011;34422;45.802;16.114;2022-08-19T11:54:00;14.43;;;4.47;;
48623;SDS011;34422;45.802;16.114;2022-08-19T11:56:27;16.55;;;7.50;;
48623;SDS011;34422;45.802;16.114;2022-08-19T11:58:54;11.18;;;3.60;;
48623;SDS011;34422;45.802;16.114;2022-08-19T12:01:23;13.50;;;4.15;;
48623;SDS011;34422;45.802;16.114;2022-08-19T12:03:52;12.85;;;3.45;;
48623;SDS011;34422;45.802;16.114;2022-08-19T12:06:22;11.17;;;4.83;;
48623;SDS011;34422;45.802;16.114;2022-08-19T12:08:58;9.95;;;3.47;;
48623;SDS011;34422;45.802;16.114;2022-08-19T12:11:27;14.68;;;3.90;;
48623;SDS011;34422;45.802;16.114;2022-08-19T12:13:54;12.82;;;4.75;;
48623;SDS011;34422;45.802;16.114;2022-08-19T12:16:22;15.82;;;4.10;;
48623;SDS011;34422;45.802;16.114;2022-08-19T12:18:53;15.07;;;3.95;;
48623;SDS011;34422;45.802;16.114;2022-08-19T12:21:25;11.63;;;4.05;;
48623;SDS011;34422;45.802;16.114;2022-08-19T12:23:55;14.50;;;4.07;;
48623;SDS011;34422;45.802;16.114;2022-08-19T12:26:24;16.65;;;4.78;;
48623;SDS011;34422;45.802;16.114;2022-08-19T12:28:52;10.40;;;3.67;;
48623;SDS011;34422;45.802;16.114;2022-08-19T12:31:20;11.30;;;3.60;;
48623;SDS011;34422;45.802;16.114;2022-08-19T12:33:47;11.20;;;3.90;;
48623;SDS011;34422;45.802;16.114;2022-08-19T12:36:14;13.90;;;4.10;;
48623;SDS011;34422;45.802;16.114;2022-08-19T12:38:42;14.38;;;3.78;;
48623;SDS011;34422;45.802;16.114;2022-08-19T12:41:12;12.32;;;3.47;;
48623;SDS011;34422;45.802;16.114;2022-08-19T12:43:40;15.65;;;3.67;;
48623;SDS011;34422;45.802;16.114;2022-08-19T12:46:08;12.82;;;3.28;;
48623;SDS011;34422;45.802;16.114;2022-08-19T12:48:36;9.70;;;3.40;;
48623;SDS011;34422;45.802;16.114;2022-08-19T12:51:07;12.40;;;3.50;;
48623;SDS011;34422;45.802;16.114;2022-08-19T12:53:36;16.27;;;3.65;;
48623;SDS011;34422;45.802;16.114;2022-08-19T12:56:03;10.93;;;3.78;;
48623;SDS011;34422;45.802;16.114;2022-08-19T12:58:31;12.90;;;4.15;;
48623;SDS011;34422;45.802;16.114;2022-08-19T13:00:58;16.42;;;4.25;;
48623;SDS011;34422;45.802;16.114;2022-08-19T13:03:25;12.35;;;4.13;;
48623;SDS011;34422;45.802;16.114;2022-08-19T13:05:55;9.25;;;2.90;;
48623;SDS011;34422;45.802;16.114;2022-08-19T13:08:22;9.88;;;3.28;;
48623;SDS011;34422;45.802;16.114;2022-08-19T13:10:49;13.52;;;4.15;;
48623;SDS011;34422;45.802;16.114;2022-08-19T13:13:16;14.90;;;3.90;;
48623;SDS011;34422;45.802;16.114;2022-08-19T13:15:43;10.50;;;3.47;;
48623;SDS011;34422;45.802;16.114;2022-08-19T13:18:11;11.63;;;3.40;;
48623;SDS011;34422;45.802;16.114;2022-08-19T13:20:41;12.95;;;3.72;;
48623;SDS011;34422;45.802;16.114;2022-08-19T13:23:08;11.93;;;3.92;;
48623;SDS011;34422;45.802;16.114;2022-08-19T13:25:35;12.45;;;3.38;;
48623;SDS011;34422;45.802;16.114;2022-08-19T13:28:03;14.98;;;4.10;;
48623;SDS011;34422;45.802;16.114;2022-08-19T13:30:33;10.18;;;3.83;;
48623;SDS011;34422;45.802;16.114;2022-08-19T13:33:28;11.13;;;3.53;;
48623;SDS011;34422;45.802;16.114;2022-08-19T13:36:18;14.95;;;4.13;;
48623;SDS011;34422;45.802;16.114;2022-08-19T13:38:45;12.75;;;4.15;;
48623;SDS011;34422;45.802;16.114;2022-08-19T13:41:16;14.90;;;3.78;;
48623;SDS011;34422;45.802;16.114;2022-08-19T13:43:45;12.00;;;4.57;;
48623;SDS011;34422;45.802;16.114;2022-08-19T13:46:12;15.95;;;3.50;;
48623;SDS011;34422;45.802;16.114;2022-08-19T13:48:42;11.88;;;4.25;;
48623;SDS011;34422;45.802;16.114;2022-08-19T13:51:09;15.40;;;4.75;;
48623;SDS011;34422;45.802;16.114;2022-08-19T13:53:37;12.75;;;3.58;;
48623;SDS011;34422;45.802;16.114;2022-08-19T13:56:05;15.15;;;3.85;;
48623;SDS011;34422;45.802;16.114;2022-08-19T13:58:33;12.95;;;3.65;;
48623;SDS011;34422;45.802;16.114;2022-08-19T14:01:00;14.02;;;4.10;;
48623;SDS011;34422;45.802;16.114;2022-08-19T14:03:35;11.18;;;3.63;;
48623;SDS011;34422;45.802;16.114;2022-08-19T14:06:09;14.82;;;4.25;;
48623;SDS011;34422;45.802;16.114;2022-08-19T14:08:46;9.50;;;3.97;;
48623;SDS011;34422;45.802;16.114;2022-08-19T14:11:13;11.13;;;3.25;;
48623;SDS011;34422;45.802;16.114;2022-08-19T14:13:41;14.38;;;3.75;;
48623;SDS011;34422;45.802;16.114;2022-08-19T14:16:08;16.17;;;4.00;;
48623;SDS011;34422;45.802;16.114;2022-08-19T14:18:36;13.15;;;4.30;;
48623;SDS011;34422;45.802;16.114;2022-08-19T14:21:05;15.60;;;4.32;;
48623;SDS011;34422;45.802;16.114;2022-08-19T14:23:33;14.60;;;4.32;;
48623;SDS011;34422;45.802;16.114;2022-08-19T14:26:08;12.82;;;3.55;;
48623;SDS011;34422;45.802;16.114;2022-08-19T14:28:38;12.55;;;3.67;;
48623;SDS011;34422;45.802;16.114;2022-08-19T14:31:08;13.32;;;3.55;;
48623;SDS011;34422;45.802;16.114;2022-08-19T14:33:39;12.63;;;3.63;;
48623;SDS011;34422;45.802;16.114;2022-08-19T14:36:06;12.27;;;4.32;;
48623;SDS011;34422;45.802;16.114;2022-08-19T14:38:33;12.70;;;3.22;;
48623;SDS011;34422;45.802;16.114;2022-08-19T14:43:36;12.88;;;2.85;;
48623;SDS011;34422;45.802;16.114;2022-08-19T14:46:04;12.23;;;3.90;;
48623;SDS011;34422;45.802;16.114;2022-08-19T14:48:31;13.10;;;4.03;;
48623;SDS011;34422;45.802;16.114;2022-08-19T14:50:58;11.48;;;3.75;;
48623;SDS011;34422;45.802;16.114;2022-08-19T14:53:25;14.93;;;3.53;;